createdAt,value
2018-05-08T00:01:50.515Z,4.37
2018-05-08T00:04:19.352Z,4.60
2018-05-08T00:06:48.319Z,3.90
2018-05-08T00:09:17.363Z,5.25
2018-05-08T00:11:46.211Z,4.10
2018-05-08T00:14:15.080Z,4.40
2018-05-08T00:16:43.965Z,4.55
2018-05-08T00:19:12.918Z,10.88
2018-05-08T00:21:42.030Z,12.35
2018-05-08T00:24:10.919Z,9.40
2018-05-08T00:26:39.820Z,7.05
2018-05-08T00:29:08.704Z,7.00
2018-05-08T00:31:37.597Z,4.35
2018-05-08T00:34:06.491Z,3.40
2018-05-08T00:36:35.374Z,3.80
2018-05-08T00:39:04.267Z,3.67
2018-05-08T00:41:33.174Z,4.47
2018-05-08T00:44:02.067Z,8.15
2018-05-08T00:46:30.958Z,15.15
2018-05-08T00:48:59.883Z,16.30
2018-05-08T00:51:28.779Z,13.90
2018-05-08T00:53:57.827Z,13.48
2018-05-08T00:56:26.721Z,13.50
2018-05-08T00:58:55.611Z,7.80
2018-05-08T01:01:24.494Z,8.23
2018-05-08T01:03:53.387Z,9.95
2018-05-08T01:06:22.491Z,12.35
2018-05-08T01:08:51.390Z,27.77
2018-05-08T01:11:20.287Z,43.97
2018-05-08T01:13:49.174Z,24.87
2018-05-08T01:16:18.078Z,14.82
2018-05-08T01:18:46.970Z,8.70
2018-05-08T01:21:15.872Z,6.90
2018-05-08T01:23:44.942Z,4.72
2018-05-08T01:26:13.826Z,3.55
2018-05-08T01:28:42.797Z,3.90
2018-05-08T01:31:11.685Z,3.03
2018-05-08T01:33:40.575Z,3.40
2018-05-08T01:36:09.512Z,3.62
2018-05-08T01:38:38.559Z,2.90
2018-05-08T01:41:07.438Z,3.90
2018-05-08T01:43:36.482Z,2.92
2018-05-08T01:46:05.374Z,2.33
2018-05-08T01:48:34.272Z,3.03
2018-05-08T01:51:03.159Z,3.55
2018-05-08T01:53:32.183Z,3.20
2018-05-08T01:56:01.076Z,3.25
2018-05-08T01:58:29.969Z,3.33
2018-05-08T02:00:58.867Z,3.95
2018-05-08T02:03:27.757Z,3.83
2018-05-08T02:05:56.683Z,2.92
2018-05-08T02:08:25.571Z,3.60
2018-05-08T02:10:54.683Z,3.10
2018-05-08T02:13:23.592Z,3.15
2018-05-08T02:15:52.479Z,3.85
2018-05-08T02:18:21.375Z,2.80
2018-05-08T02:20:50.267Z,3.25
2018-05-08T02:23:19.179Z,3.78
2018-05-08T02:25:48.078Z,2.92
2018-05-08T02:28:16.977Z,3.40
2018-05-08T02:30:45.864Z,2.58
2018-05-08T02:33:14.874Z,3.47
2018-05-08T02:35:43.787Z,3.10
2018-05-08T02:38:12.679Z,2.15
2018-05-08T02:40:41.572Z,3.37
2018-05-08T02:43:10.452Z,2.60
2018-05-08T02:45:39.740Z,3.15
2018-05-08T02:48:08.967Z,2.50
2018-05-08T02:50:37.864Z,3.53
2018-05-08T02:53:06.778Z,3.72
2018-05-08T02:55:35.674Z,3.00
2018-05-08T02:58:04.822Z,3.20
2018-05-08T03:00:33.707Z,3.10
2018-05-08T03:03:02.599Z,2.40
2018-05-08T03:05:31.717Z,2.97
2018-05-08T03:08:00.581Z,2.65
2018-05-08T03:10:29.434Z,3.75
2018-05-08T03:12:58.943Z,3.00
2018-05-08T03:15:28.067Z,3.33
2018-05-08T03:17:57.184Z,3.55
2018-05-08T03:20:26.257Z,2.75
2018-05-08T03:22:55.402Z,2.95
2018-05-08T03:25:24.290Z,3.30
2018-05-08T03:27:53.180Z,3.00
2018-05-08T03:30:22.068Z,3.03
2018-05-08T03:32:51.354Z,3.00
2018-05-08T03:35:20.242Z,3.40
2018-05-08T03:37:49.126Z,2.97
2018-05-08T03:40:18.018Z,3.12
2018-05-08T03:42:46.906Z,2.42
2018-05-08T03:45:15.880Z,3.08
2018-05-08T03:47:44.766Z,3.03
2018-05-08T03:50:13.655Z,2.47
2018-05-08T03:52:42.555Z,2.90
2018-05-08T03:55:11.449Z,3.22
2018-05-08T03:57:40.665Z,3.10
2018-05-08T04:00:09.561Z,4.72
2018-05-08T04:02:44.422Z,2.78
2018-05-08T04:05:19.223Z,2.25
2018-05-08T04:07:54.077Z,2.87
2018-05-08T04:10:22.971Z,3.58
2018-05-08T04:12:51.859Z,3.00
2018-05-08T04:15:20.747Z,3.45
2018-05-08T04:17:49.647Z,3.25
2018-05-08T04:20:18.563Z,3.37
2018-05-08T04:22:47.458Z,16.87
2018-05-08T04:25:16.360Z,56.30
2018-05-08T04:27:45.248Z,28.15
2018-05-08T04:30:14.139Z,12.37
2018-05-08T04:32:43.171Z,6.70
2018-05-08T04:35:12.054Z,6.30
2018-05-08T04:37:40.948Z,6.25
2018-05-08T04:40:09.835Z,5.10
2018-05-08T04:42:38.719Z,5.03
2018-05-08T04:45:07.669Z,5.03
2018-05-08T04:47:36.563Z,4.15
2018-05-08T04:50:05.463Z,3.25
2018-05-08T04:52:34.351Z,3.30
2018-05-08T04:55:03.235Z,3.70
2018-05-08T04:57:32.167Z,2.75
2018-05-08T05:00:01.051Z,2.55
2018-05-08T05:02:29.939Z,8.00
2018-05-08T05:04:58.835Z,6.60
2018-05-08T05:07:27.725Z,7.35
2018-05-08T05:09:56.837Z,5.82
2018-05-08T05:12:25.727Z,4.70
2018-05-08T05:14:54.610Z,3.37
2018-05-08T05:17:23.586Z,8.75
2018-05-08T05:19:52.479Z,5.05
2018-05-08T05:22:21.360Z,5.37
2018-05-08T05:24:50.246Z,5.05
2018-05-08T05:27:19.138Z,2.47
2018-05-08T05:29:48.858Z,3.42
2018-05-08T05:32:17.746Z,3.05
2018-05-08T05:34:46.862Z,3.70
2018-05-08T05:37:15.755Z,3.92
2018-05-08T05:39:44.963Z,4.12
2018-05-08T05:42:13.855Z,2.95
2018-05-08T05:44:42.751Z,3.28
2018-05-08T05:47:11.639Z,2.35
2018-05-08T05:49:40.533Z,3.15
2018-05-08T05:52:09.431Z,2.65
2018-05-08T05:54:38.320Z,3.15
2018-05-08T05:57:07.463Z,3.45
2018-05-08T05:59:36.360Z,3.58
2018-05-08T06:02:05.338Z,3.80
2018-05-08T06:04:34.250Z,2.53
2018-05-08T06:07:03.135Z,4.35
2018-05-08T06:09:32.029Z,2.80
2018-05-08T06:12:00.992Z,2.37
2018-05-08T06:14:29.832Z,2.80
2018-05-08T06:16:58.711Z,2.60
2018-05-08T06:19:27.740Z,3.00
2018-05-08T06:21:56.806Z,2.85
2018-05-08T06:24:25.690Z,1.95
2018-05-08T06:26:54.995Z,2.72
2018-05-08T06:29:23.879Z,3.05
2018-05-08T06:31:52.763Z,2.25
2018-05-08T06:34:21.879Z,2.40
2018-05-08T06:36:50.764Z,2.15
2018-05-08T06:39:20.054Z,2.10
2018-05-08T06:41:48.944Z,2.40
2018-05-08T06:44:17.912Z,2.45
2018-05-08T06:46:46.775Z,3.03
2018-05-08T06:49:15.657Z,2.40
2018-05-08T06:51:44.599Z,2.35
2018-05-08T06:54:13.478Z,2.40
2018-05-08T06:56:42.362Z,3.10
2018-05-08T06:59:11.259Z,2.55
2018-05-08T07:01:40.288Z,2.62
2018-05-08T07:04:09.207Z,2.30
2018-05-08T07:06:38.095Z,2.45
2018-05-08T07:09:07.050Z,2.78
2018-05-08T07:11:35.929Z,2.47
2018-05-08T07:14:04.815Z,2.65
2018-05-08T07:16:33.739Z,2.67
2018-05-08T07:19:02.675Z,2.87
2018-05-08T07:21:31.563Z,2.50
2018-05-08T07:24:00.514Z,2.47
2018-05-08T07:26:29.370Z,2.25
2018-05-08T07:28:58.867Z,2.20
2018-05-08T07:31:27.757Z,1.42
2018-05-08T07:33:56.687Z,2.00
2018-05-08T07:36:25.581Z,1.80
2018-05-08T07:38:54.469Z,1.65
2018-05-08T07:41:23.472Z,2.20
2018-05-08T07:43:52.351Z,1.90
2018-05-08T07:46:21.239Z,2.25
2018-05-08T07:48:50.128Z,2.00
2018-05-08T07:51:19.010Z,2.65
2018-05-08T07:53:48.167Z,2.15
2018-05-08T07:56:17.111Z,2.33
2018-05-08T07:58:45.998Z,2.35
2018-05-08T08:01:15.272Z,2.25
2018-05-08T08:03:44.219Z,2.83
2018-05-08T08:06:13.082Z,2.20
2018-05-08T08:08:41.969Z,1.80
2018-05-08T08:11:10.859Z,1.73
2018-05-08T08:13:39.750Z,1.98
2018-05-08T08:16:08.643Z,1.75
2018-05-08T08:18:37.769Z,1.73
2018-05-08T08:21:06.663Z,2.00
2018-05-08T08:23:35.555Z,2.42
2018-05-08T08:26:04.439Z,1.67
2018-05-08T08:28:33.356Z,2.62
2018-05-08T08:31:02.239Z,2.37
2018-05-08T08:33:31.319Z,2.47
2018-05-08T08:36:00.255Z,1.90
2018-05-08T08:38:29.152Z,2.45
2018-05-08T08:40:58.098Z,2.58
2018-05-08T08:43:26.959Z,2.33
2018-05-08T08:45:55.846Z,2.40
2018-05-08T08:48:24.730Z,2.10
2018-05-08T08:50:53.621Z,2.17
2018-05-08T08:53:22.567Z,1.92
2018-05-08T08:55:51.465Z,2.20
2018-05-08T08:58:20.379Z,2.35
2018-05-08T09:07:34.235Z,2.10
2018-05-08T09:10:03.131Z,2.42
2018-05-08T09:12:32.063Z,1.98
2018-05-08T09:15:01.127Z,2.00
2018-05-08T09:17:30.019Z,1.90
2018-05-08T09:19:59.255Z,2.22
2018-05-08T09:22:28.167Z,2.37
2018-05-08T09:24:57.063Z,1.85
2018-05-08T09:27:26.257Z,1.75
2018-05-08T09:29:55.103Z,2.22
2018-05-08T09:32:24.003Z,1.70
2018-05-08T09:34:52.912Z,1.90
2018-05-08T09:37:21.811Z,2.17
2018-05-08T09:39:50.940Z,1.73
2018-05-08T09:42:19.848Z,2.40
2018-05-08T09:44:48.755Z,2.10
2018-05-08T09:47:17.644Z,1.75
2018-05-08T09:49:46.750Z,1.77
2018-05-08T09:52:15.679Z,1.50
2018-05-08T09:54:44.580Z,2.03
2018-05-08T09:57:13.492Z,1.92
2018-05-08T09:59:42.731Z,1.87
2018-05-08T10:02:11.641Z,2.15
2018-05-08T10:04:40.915Z,1.75
2018-05-08T10:07:09.843Z,3.12
2018-05-08T10:09:38.759Z,1.60
2018-05-08T10:12:07.699Z,2.40
2018-05-08T10:14:36.598Z,1.93
2018-05-08T10:17:05.495Z,2.00
2018-05-08T10:19:34.712Z,1.80
2018-05-08T10:22:03.604Z,1.67
2018-05-08T10:24:32.495Z,1.73
2018-05-08T10:27:01.615Z,2.00
2018-05-08T10:29:30.510Z,1.93
2018-05-08T10:31:59.403Z,1.93
2018-05-08T10:34:28.290Z,2.20
2018-05-08T10:36:57.187Z,1.97
2018-05-08T10:39:26.255Z,1.90
2018-05-08T10:41:55.148Z,1.57
2018-05-08T10:44:24.043Z,1.67
2018-05-08T10:46:52.931Z,2.00
2018-05-08T10:49:21.855Z,2.50
2018-05-08T10:51:50.745Z,1.97
2018-05-08T10:54:19.653Z,1.87
2018-05-08T10:56:48.548Z,1.37
2018-05-08T10:59:17.585Z,1.93
2018-05-08T11:01:46.539Z,1.90
2018-05-08T11:04:15.423Z,2.07
2018-05-08T11:06:44.315Z,1.97
2018-05-08T11:09:13.211Z,2.17
2018-05-08T11:11:42.419Z,1.77
2018-05-08T11:14:11.309Z,1.63
2018-05-08T11:16:40.243Z,1.83
2018-05-08T11:19:09.146Z,1.63
2018-05-08T11:21:38.172Z,1.83
2018-05-08T11:24:07.383Z,1.87
2018-05-08T11:26:36.358Z,2.00
2018-05-08T11:29:05.202Z,1.87
2018-05-08T11:31:34.331Z,2.10
2018-05-08T11:34:03.227Z,2.30
2018-05-08T11:36:32.143Z,1.77
2018-05-08T11:39:01.048Z,2.30
2018-05-08T11:41:29.950Z,1.57
2018-05-08T11:43:58.872Z,2.10
2018-05-08T11:46:27.767Z,1.43
2018-05-08T11:48:57.199Z,2.00
2018-05-08T11:51:26.320Z,1.83
2018-05-08T11:53:55.214Z,1.80
2018-05-08T11:56:24.119Z,1.70
2018-05-08T11:58:53.019Z,1.60
2018-05-08T12:01:22.267Z,1.70
2018-05-08T12:03:51.157Z,2.07
2018-05-08T12:06:20.060Z,2.43
2018-05-08T12:08:49.163Z,1.60
2018-05-08T12:11:18.065Z,1.80
2018-05-08T12:13:46.962Z,1.50
2018-05-08T12:16:15.859Z,2.90
2018-05-08T12:18:44.758Z,1.43
2018-05-08T12:21:13.860Z,1.40
2018-05-08T12:23:42.758Z,1.63
2018-05-08T12:26:11.662Z,1.77
2018-05-08T12:28:40.564Z,1.60
2018-05-08T12:31:09.504Z,1.30
2018-05-08T12:33:38.531Z,1.57
2018-05-08T12:36:07.523Z,1.40
2018-05-08T12:38:36.352Z,1.37
2018-05-08T12:41:05.760Z,1.63
2018-05-08T12:43:34.651Z,1.67
2018-05-08T12:46:03.543Z,1.40
2018-05-08T12:48:32.431Z,1.70
2018-05-08T12:51:01.334Z,1.03
2018-05-08T12:53:30.247Z,1.73
2018-05-08T12:55:59.195Z,1.40
2018-05-08T12:58:28.126Z,1.17
2018-05-08T13:00:57.031Z,1.33
2018-05-08T13:03:25.981Z,1.60
2018-05-08T13:05:55.067Z,1.40
2018-05-08T13:08:23.998Z,1.73
2018-05-08T13:10:52.899Z,1.30
2018-05-08T13:13:21.825Z,1.60
2018-05-08T13:15:50.750Z,1.30
2018-05-08T13:18:19.737Z,1.30
2018-05-08T13:20:48.581Z,1.57
2018-05-08T13:23:17.625Z,1.50
2018-05-08T13:25:46.516Z,1.60
2018-05-08T13:28:15.418Z,1.13
2018-05-08T13:30:44.420Z,1.43
2018-05-08T13:33:13.321Z,1.50
2018-05-08T13:35:42.211Z,1.30
2018-05-08T13:38:11.166Z,1.60
2018-05-08T13:40:40.067Z,2.47
2018-05-08T13:43:08.963Z,1.23
2018-05-08T13:45:38.002Z,1.40
2018-05-08T13:48:06.930Z,1.47
2018-05-08T13:50:35.809Z,1.60
2018-05-08T13:53:04.703Z,1.53
2018-05-08T13:55:33.601Z,2.23
2018-05-08T13:58:02.804Z,1.00
2018-05-08T14:00:31.692Z,1.63
2018-05-08T14:03:00.605Z,1.83
2018-05-08T14:05:29.688Z,2.07
2018-05-08T14:07:58.579Z,1.47
2018-05-08T14:10:27.481Z,2.30
2018-05-08T14:12:56.563Z,1.93
2018-05-08T14:15:25.531Z,2.73
2018-05-08T14:17:54.443Z,2.90
2018-05-08T14:20:23.327Z,2.10
2018-05-08T14:22:52.224Z,2.40
2018-05-08T14:25:21.115Z,2.10
2018-05-08T14:27:50.004Z,2.13
2018-05-08T14:30:18.986Z,1.77
2018-05-08T14:32:47.875Z,1.30
2018-05-08T14:35:16.850Z,3.70
2018-05-08T14:37:45.763Z,3.17
2018-05-08T14:40:14.669Z,2.50
2018-05-08T14:42:43.599Z,1.93
2018-05-08T14:45:12.489Z,2.20
2018-05-08T14:47:41.398Z,2.17
2018-05-08T14:50:10.328Z,3.17
2018-05-08T14:52:39.266Z,1.97
2018-05-08T14:55:08.151Z,2.17
2018-05-08T14:57:37.060Z,2.20
2018-05-08T15:00:05.955Z,2.47
2018-05-08T15:02:34.879Z,1.77
2018-05-08T15:05:03.770Z,1.77
2018-05-08T15:07:32.662Z,1.60
2018-05-08T15:10:01.580Z,2.13
2018-05-08T15:12:30.479Z,2.23
2018-05-08T15:14:59.382Z,2.10
2018-05-08T15:17:28.547Z,2.37
2018-05-08T15:19:57.496Z,1.93
2018-05-08T15:22:26.391Z,1.90
2018-05-08T15:24:55.283Z,1.87
2018-05-08T15:27:24.188Z,2.70
2018-05-08T15:29:53.079Z,1.70
2018-05-08T15:32:21.969Z,1.90
2018-05-08T15:34:50.923Z,1.57
2018-05-08T15:37:19.827Z,1.83
2018-05-08T15:39:48.717Z,1.90
2018-05-08T15:42:17.623Z,1.90
2018-05-08T15:44:46.519Z,2.28
2018-05-08T15:47:15.712Z,1.45
2018-05-08T15:49:44.570Z,2.10
2018-05-08T15:52:13.463Z,1.83
2018-05-08T15:54:42.795Z,1.95
2018-05-08T15:57:11.678Z,1.97
2018-05-08T15:59:40.633Z,1.80
2018-05-08T16:02:09.550Z,1.87
2018-05-08T16:04:38.451Z,1.80
2018-05-08T16:07:07.352Z,2.00
2018-05-08T16:09:36.285Z,2.62
2018-05-08T16:12:05.841Z,2.40
2018-05-08T16:14:34.738Z,4.05
2018-05-08T16:17:03.639Z,3.17
2018-05-08T16:19:32.719Z,3.03
2018-05-08T16:22:01.630Z,2.45
2018-05-08T16:24:30.522Z,1.95
2018-05-08T16:26:59.530Z,2.28
2018-05-08T16:29:28.621Z,3.05
2018-05-08T16:31:57.723Z,2.42
2018-05-08T16:34:26.613Z,2.22
2018-05-08T16:36:55.575Z,1.87
2018-05-08T16:39:24.494Z,2.10
2018-05-08T16:41:53.398Z,2.22
2018-05-08T16:44:22.315Z,2.10
2018-05-08T16:46:51.204Z,2.40
2018-05-08T16:49:20.103Z,1.75
2018-05-08T16:51:49.255Z,2.10
2018-05-08T16:54:18.350Z,2.35
2018-05-08T16:56:47.259Z,2.45
2018-05-08T16:59:16.153Z,2.08
2018-05-08T17:01:45.037Z,1.85
2018-05-08T17:04:13.939Z,1.95
2018-05-08T17:06:42.831Z,2.15
2018-05-08T17:09:11.721Z,1.90
2018-05-08T17:11:40.663Z,1.67
2018-05-08T17:14:09.657Z,1.90
2018-05-08T17:16:38.560Z,3.03
2018-05-08T17:19:07.534Z,2.55
2018-05-08T17:21:36.362Z,1.90
2018-05-08T17:24:05.305Z,2.25
2018-05-08T17:26:34.198Z,1.83
2018-05-08T17:29:03.151Z,2.50
2018-05-08T17:31:32.035Z,1.40
2018-05-08T17:34:00.932Z,2.20
2018-05-08T17:36:29.927Z,2.67
2018-05-08T17:38:58.819Z,2.00
2018-05-08T17:41:27.719Z,2.33
2018-05-08T17:43:56.983Z,2.03
2018-05-08T17:46:26.083Z,2.17
2018-05-08T17:48:54.975Z,2.45
2018-05-08T17:51:24.291Z,2.55
2018-05-08T17:53:53.235Z,2.12
2018-05-08T17:56:22.143Z,2.22
2018-05-08T17:58:51.563Z,1.90
2018-05-08T18:01:20.451Z,2.35
2018-05-08T18:03:49.343Z,2.53
2018-05-08T18:06:18.231Z,2.03
2018-05-08T18:08:47.120Z,2.00
2018-05-08T18:11:16.260Z,1.60
2018-05-08T18:13:45.156Z,2.42
2018-05-08T18:16:14.052Z,2.00
2018-05-08T18:18:43.097Z,2.80
2018-05-08T18:21:11.987Z,2.15
2018-05-08T18:23:41.099Z,2.55
2018-05-08T18:26:09.998Z,2.50
2018-05-08T18:28:38.891Z,2.25
2018-05-08T18:31:07.783Z,1.83
2018-05-08T18:33:36.671Z,2.17
2018-05-08T18:36:05.615Z,2.22
2018-05-08T18:38:34.579Z,2.60
2018-05-08T18:41:03.467Z,2.12
2018-05-08T18:43:32.356Z,2.03
2018-05-08T18:46:01.235Z,2.75
2018-05-08T18:48:30.152Z,1.80
2018-05-08T18:50:59.691Z,2.15
2018-05-08T18:53:28.580Z,1.90
2018-05-08T18:55:57.467Z,2.53
2018-05-08T18:58:26.592Z,3.25
2018-05-08T19:00:55.487Z,2.55
2018-05-08T19:03:24.457Z,2.25
2018-05-08T19:05:53.302Z,2.50
2018-05-08T19:08:22.235Z,2.40
2018-05-08T19:10:57.036Z,2.65
2018-05-08T19:13:25.947Z,2.25
2018-05-08T19:16:00.592Z,2.72
2018-05-08T19:18:35.351Z,2.58
2018-05-08T19:21:04.235Z,2.10
2018-05-08T19:23:33.119Z,3.25
2018-05-08T19:26:01.999Z,2.30
2018-05-08T19:28:36.667Z,2.75
2018-05-08T19:31:05.561Z,3.05
2018-05-08T19:33:34.455Z,3.33
2018-05-08T19:36:09.167Z,2.90
2018-05-08T19:38:38.059Z,2.12
2018-05-08T19:41:06.947Z,3.33
2018-05-08T19:43:35.834Z,2.80
2018-05-08T19:46:05.092Z,3.35
2018-05-08T19:48:33.979Z,3.10
2018-05-08T19:51:02.868Z,3.10
2018-05-08T19:53:31.755Z,2.05
2018-05-08T19:56:00.641Z,2.47
2018-05-08T19:58:29.856Z,2.65
2018-05-08T20:00:58.746Z,2.53
2018-05-08T20:03:27.637Z,3.20
2018-05-08T20:05:56.527Z,3.58
2018-05-08T20:08:25.597Z,4.37
2018-05-08T20:10:54.539Z,3.55
2018-05-08T20:13:23.420Z,2.75
2018-05-08T20:15:52.303Z,2.50
2018-05-08T20:18:21.207Z,2.67
2018-05-08T20:20:50.480Z,2.40
2018-05-08T20:23:19.487Z,2.80
2018-05-08T20:25:48.380Z,2.65
2018-05-08T20:28:17.293Z,2.92
2018-05-08T20:30:46.232Z,2.72
2018-05-08T20:33:15.127Z,2.60
2018-05-08T20:35:44.036Z,3.00
2018-05-08T20:38:12.923Z,2.80
2018-05-08T20:40:41.850Z,3.08
2018-05-08T20:43:10.827Z,3.17
2018-05-08T20:45:39.716Z,2.70
2018-05-08T20:48:08.619Z,3.08
2018-05-08T20:50:37.519Z,2.67
2018-05-08T20:53:06.454Z,2.42
2018-05-08T20:55:35.380Z,3.10
2018-05-08T20:58:04.295Z,2.00
2018-05-08T21:00:33.186Z,2.87
2018-05-08T21:03:02.088Z,3.50
2018-05-08T21:05:30.986Z,3.90
2018-05-08T21:07:59.887Z,2.50
2018-05-08T21:10:28.805Z,3.17
2018-05-08T21:12:57.842Z,2.85
2018-05-08T21:15:26.791Z,2.70
2018-05-08T21:17:56.077Z,3.40
2018-05-08T21:20:24.920Z,2.67
2018-05-08T21:22:53.807Z,4.15
2018-05-08T21:25:22.866Z,3.45
2018-05-08T21:27:57.391Z,2.80
2018-05-08T21:30:31.987Z,3.15
2018-05-08T21:33:00.875Z,3.10
2018-05-08T21:35:29.891Z,3.28
2018-05-08T21:37:58.802Z,3.53
2018-05-08T21:40:27.691Z,3.08
2018-05-08T21:42:56.570Z,3.50
2018-05-08T21:45:25.457Z,3.37
2018-05-08T21:47:54.347Z,2.90
2018-05-08T21:50:23.239Z,2.80
2018-05-08T21:52:52.159Z,4.93
2018-05-08T21:55:21.074Z,3.15
2018-05-08T21:57:49.965Z,3.70
2018-05-08T22:00:18.851Z,3.15
2018-05-08T22:02:47.747Z,2.80
2018-05-08T22:05:16.634Z,2.92
2018-05-08T22:07:45.747Z,2.70
2018-05-08T22:10:14.636Z,3.40
2018-05-08T22:12:43.522Z,3.00
2018-05-08T22:15:12.410Z,3.60
2018-05-08T22:17:41.301Z,3.33
2018-05-08T22:20:10.262Z,2.67
2018-05-08T22:22:39.098Z,3.10
2018-05-08T22:25:07.982Z,2.58
2018-05-08T22:27:36.864Z,2.55
2018-05-08T22:30:06.311Z,2.47
2018-05-08T22:32:35.215Z,2.50
2018-05-08T22:35:04.111Z,3.60
2018-05-08T22:37:33.049Z,2.67
2018-05-08T22:40:01.911Z,2.60
2018-05-08T22:42:30.808Z,3.17
2018-05-08T22:44:59.694Z,2.85
2018-05-08T22:47:28.900Z,3.35
2018-05-08T22:49:57.861Z,3.60
2018-05-08T22:52:26.750Z,2.78
2018-05-08T22:54:55.638Z,2.90
2018-05-08T22:57:24.532Z,3.30
2018-05-08T22:59:53.422Z,3.33
2018-05-08T23:02:22.510Z,3.03
2018-05-08T23:04:51.407Z,3.00
2018-05-08T23:07:20.303Z,2.90
2018-05-08T23:09:49.191Z,3.87
2018-05-08T23:12:18.075Z,3.83
2018-05-08T23:14:47.143Z,3.75
2018-05-08T23:17:16.262Z,3.35
2018-05-08T23:19:45.151Z,4.10
2018-05-08T23:22:14.042Z,3.62
2018-05-08T23:24:42.930Z,3.80
2018-05-08T23:27:11.879Z,3.85
2018-05-08T23:29:40.767Z,3.37
2018-05-08T23:32:09.655Z,3.60
2018-05-08T23:34:38.590Z,4.07
2018-05-08T23:37:07.532Z,3.55
2018-05-08T23:39:36.463Z,3.87
2018-05-08T23:42:05.345Z,3.58
2018-05-08T23:44:34.239Z,3.85
2018-05-08T23:47:03.131Z,3.20
2018-05-08T23:49:32.061Z,3.12
2018-05-08T23:52:01.178Z,3.35
2018-05-08T23:54:30.063Z,3.55
2018-05-08T23:56:58.997Z,3.60
2018-05-08T23:59:27.886Z,3.20
